Time;durP1;ratioP1;P1;durP2;ratioP2;P2;SDS_P1;SDS_P2;PMS_P1;PMS_P2;Temp;Humidity;BMP_temperature;BMP_pressure;BME280_temperature;BME280_humidity;BME280_pressure;Samples;Min_cycle;Max_cycle;Signal;HPM_P1;HPM_P2
2023/04/18 00:00:58;;;;;;;16.17;8.70;;;6.20;99.90;;;;;;5014965;28;20069;-81
2023/04/18 00:03:24;;;;;;;17.80;8.80;;;6.20;99.90;;;;;;5014439;28;20057;-81
2023/04/18 00:05:49;;;;;;;16.63;8.87;;;6.20;99.90;;;;;;5014059;28;20057;-81
2023/04/18 00:08:15;;;;;;;14.97;8.50;;;6.20;99.90;;;;;;5013193;28;20055;-81
2023/04/18 00:10:41;;;;;;;16.63;8.33;;;6.20;99.90;;;;;;5026070;28;20121;-81
2023/04/18 00:13:07;;;;;;;15.33;8.17;;;6.20;99.90;;;;;;4994156;28;20045;-81
2023/04/18 00:15:34;;;;;;;16.27;8.57;;;6.20;99.90;;;;;;5011709;28;20445;-81
2023/04/18 00:18:04;;;;;;;17.03;8.27;;;6.10;99.90;;;;;;5013456;28;20173;-80
2023/04/18 00:20:30;;;;;;;15.23;8.40;;;6.10;99.90;;;;;;4998458;28;20050;-81
2023/04/18 00:22:56;;;;;;;16.63;8.87;;;6.10;99.90;;;;;;4997097;28;20045;-80
2023/04/18 00:25:22;;;;;;;15.70;8.53;;;6.00;99.90;;;;;;4998215;28;20132;-81
2023/04/18 00:27:48;;;;;;;16.30;8.83;;;6.00;99.90;;;;;;5016041;28;20046;-81
2023/04/18 00:30:14;;;;;;;14.67;8.47;;;5.90;99.90;;;;;;5015096;28;20053;-81
2023/04/18 00:32:39;;;;;;;15.40;9.10;;;6.40;99.90;;;;;;5015800;28;20050;-81
2023/04/18 00:35:05;;;;;;;15.90;8.67;;;5.90;99.90;;;;;;4996822;28;20042;-80
2023/04/18 00:37:31;;;;;;;16.63;9.20;;;5.90;99.90;;;;;;4997841;28;20081;-81
2023/04/18 00:39:57;;;;;;;18.83;8.47;;;5.80;99.90;;;;;;5015574;28;20042;-81
2023/04/18 00:42:24;;;;;;;17.90;9.57;;;5.80;99.90;;;;;;4997034;28;20048;-81
2023/04/18 00:44:50;;;;;;;16.70;8.67;;;5.80;99.90;;;;;;4997785;28;20183;-81
2023/04/18 00:47:16;;;;;;;17.67;9.10;;;5.70;99.90;;;;;;5015221;28;20066;-81
2023/04/18 00:49:43;;;;;;;16.77;9.03;;;5.80;99.90;;;;;;4996926;28;20052;-81
2023/04/18 00:52:10;;;;;;;19.00;9.70;;;5.70;99.90;;;;;;4997600;28;20120;-81
2023/04/18 00:54:36;;;;;;;18.03;9.47;;;5.60;99.90;;;;;;4997952;28;20549;-81
2023/04/18 00:57:02;;;;;;;16.93;9.17;;;5.60;99.90;;;;;;5013516;28;20050;-81
2023/04/18 00:59:28;;;;;;;19.50;9.57;;;5.50;99.90;;;;;;5015209;28;20501;-80
2023/04/18 01:01:53;;;;;;;19.00;9.43;;;5.50;99.90;;;;;;4997563;28;20127;-81
2023/04/18 01:04:19;;;;;;;20.10;9.43;;;5.50;99.90;;;;;;5013815;28;20069;-81
2023/04/18 01:06:44;;;;;;;17.37;9.80;;;5.50;99.90;;;;;;5015162;28;20502;-81
2023/04/18 01:09:12;;;;;;;19.03;9.93;;;5.50;99.90;;;;;;5014699;28;20046;-81
2023/04/18 01:11:38;;;;;;;18.87;9.70;;;5.50;99.90;;;;;;4996993;28;20494;-81
2023/04/18 01:14:06;;;;;;;16.73;9.43;;;5.40;99.90;;;;;;4997188;28;20052;-81
2023/04/18 01:16:32;;;;;;;18.07;9.90;;;5.50;99.90;;;;;;5014796;28;20050;-81
2023/04/18 01:18:59;;;;;;;18.87;10.23;;;5.40;99.90;;;;;;4996172;28;20046;-81
2023/04/18 01:21:25;;;;;;;18.17;10.07;;;5.40;99.90;;;;;;4997131;28;20049;-81
2023/04/18 01:23:52;;;;;;;19.23;10.40;;;5.40;99.90;;;;;;5016342;28;20393;-81
2023/04/18 01:26:18;;;;;;;19.13;9.40;;;5.40;99.90;;;;;;4996486;28;20402;-81
2023/04/18 01:28:44;;;;;;;18.30;10.53;;;5.40;99.90;;;;;;5014745;28;20430;-81
2023/04/18 01:31:10;;;;;;;18.87;10.10;;;5.40;99.90;;;;;;4997206;28;20083;-81
2023/04/18 01:33:36;;;;;;;18.40;10.47;;;5.40;99.90;;;;;;5014846;28;20056;-81
2023/04/18 01:36:01;;;;;;;17.50;10.10;;;5.40;99.90;;;;;;5014227;28;20050;-81
2023/04/18 01:38:27;;;;;;;16.17;9.90;;;5.40;99.90;;;;;;4996307;28;20060;-81
2023/04/18 01:40:52;;;;;;;19.70;10.60;;;5.30;99.90;;;;;;4996758;28;20063;-81
2023/04/18 01:43:18;;;;;;;17.03;9.37;;;5.30;99.90;;;;;;4996722;28;20177;-81
2023/04/18 01:45:44;;;;;;;19.93;10.20;;;5.30;99.90;;;;;;5013732;28;20493;-81
2023/04/18 01:48:10;;;;;;;18.57;9.80;;;5.40;99.90;;;;;;4996762;28;20493;-81
2023/04/18 01:50:35;;;;;;;19.40;10.50;;;5.40;99.90;;;;;;4996694;28;20139;-81
2023/04/18 01:53:01;;;;;;;17.87;10.07;;;5.40;99.90;;;;;;5012834;28;20037;-81
2023/04/18 01:55:26;;;;;;;18.57;10.40;;;5.50;99.90;;;;;;5014262;28;20046;-81
2023/04/18 01:57:52;;;;;;;18.60;10.67;;;5.40;99.90;;;;;;4996642;28;20152;-81
2023/04/18 02:00:18;;;;;;;17.43;9.83;;;5.50;99.90;;;;;;4995613;28;20042;-81
2023/04/18 02:02:44;;;;;;;17.30;9.70;;;5.50;99.90;;;;;;5013576;28;20033;-81
2023/04/18 02:05:09;;;;;;;17.70;9.93;;;5.50;99.90;;;;;;5012760;28;20072;-81
2023/04/18 02:07:38;;;;;;;18.70;10.70;;;5.50;99.90;;;;;;4995565;28;20041;-81
2023/04/18 02:10:04;;;;;;;17.10;9.40;;;5.50;99.90;;;;;;5013792;28;20045;-81
2023/04/18 02:12:30;;;;;;;17.37;9.87;;;5.50;99.90;;;;;;5013533;28;20494;-81
2023/04/18 02:14:56;;;;;;;19.10;10.40;;;5.50;99.90;;;;;;5012619;28;20116;-81
2023/04/18 02:17:22;;;;;;;17.87;10.10;;;6.10;99.90;;;;;;4995943;28;20569;-81
2023/04/18 02:19:51;;;;;;;18.07;9.53;;;5.50;99.90;;;;;;4996116;28;20442;-81
2023/04/18 02:22:17;;;;;;;17.87;9.70;;;5.50;99.90;;;;;;4995338;28;20494;-81
2023/04/18 02:24:45;;;;;;;18.30;10.23;;;5.50;99.90;;;;;;5013859;28;20072;-81
2023/04/18 02:27:11;;;;;;;17.27;9.60;;;5.50;99.90;;;;;;5013434;28;20045;-81
2023/04/18 02:29:37;;;;;;;18.63;10.03;;;5.50;99.90;;;;;;4995411;28;20045;-81
2023/04/18 02:32:02;;;;;;;17.40;10.10;;;5.50;99.90;;;;;;4995522;28;20104;-81
2023/04/18 02:34:28;;;;;;;19.47;10.23;;;5.50;99.90;;;;;;5013021;28;20104;-81
2023/04/18 02:36:54;;;;;;;18.37;9.80;;;5.50;99.90;;;;;;4995643;28;20137;-81
2023/04/18 02:39:20;;;;;;;18.30;10.03;;;5.50;99.90;;;;;;4995675;28;20057;-81
2023/04/18 02:41:45;;;;;;;18.73;10.47;;;5.40;99.90;;;;;;4995077;28;20053;-81
2023/04/18 02:44:11;;;;;;;19.63;10.27;;;5.40;99.90;;;;;;4995319;28;20044;-81
2023/04/18 02:46:36;;;;;;;17.30;10.40;;;5.40;99.90;;;;;;5013467;28;20057;-81
2023/04/18 02:49:02;;;;;;;18.43;10.43;;;5.30;99.90;;;;;;4994763;28;20437;-81
2023/04/18 02:51:28;;;;;;;17.60;10.43;;;5.40;99.90;;;;;;4995671;28;20057;-81
2023/04/18 02:53:54;;;;;;;18.23;10.20;;;5.40;99.90;;;;;;5016116;28;20101;-81
2023/04/18 02:56:20;;;;;;;20.93;11.40;;;5.30;99.90;;;;;;5012988;28;20509;-81
2023/04/18 02:58:47;;;;;;;17.90;10.50;;;5.40;99.90;;;;;;5013584;28;20045;-81
2023/04/18 03:01:14;;;;;;;19.00;11.25;;;5.40;99.90;;;;;;5014696;28;20074;-81
2023/04/18 03:03:39;;;;;;;18.63;10.77;;;5.40;99.90;;;;;;5012467;28;20116;-81
2023/04/18 03:06:05;;;;;;;20.17;11.80;;;5.50;99.90;;;;;;4994791;28;20049;-81
2023/04/18 03:08:31;;;;;;;19.83;11.13;;;5.50;99.90;;;;;;4995547;28;20042;-81
2023/04/18 03:10:56;;;;;;;19.70;11.20;;;5.50;99.90;;;;;;5012269;28;20045;-81
2023/04/18 03:13:22;;;;;;;22.27;11.20;;;5.60;99.90;;;;;;5012749;28;20041;-81
2023/04/18 03:15:49;;;;;;;20.70;11.10;;;5.60;99.90;;;;;;5013023;28;20042;-81
2023/04/18 03:18:15;;;;;;;22.33;11.10;;;5.70;99.90;;;;;;4994388;28;20100;-81
2023/04/18 03:20:40;;;;;;;20.30;10.73;;;5.70;99.90;;;;;;4994958;28;20089;-81
2023/04/18 03:23:06;;;;;;;19.37;10.63;;;5.70;99.90;;;;;;4994948;28;20046;-81
2023/04/18 03:25:33;;;;;;;19.40;10.53;;;6.10;99.90;;;;;;5012270;28;20440;-81
2023/04/18 03:27:58;;;;;;;18.83;9.93;;;5.80;99.90;;;;;;4995191;28;20054;-81
2023/04/18 03:30:24;;;;;;;21.17;11.57;;;5.80;99.90;;;;;;4995662;28;20496;-81
2023/04/18 03:32:51;;;;;;;19.27;10.13;;;5.90;99.90;;;;;;4997472;28;20524;-82
2023/04/18 03:35:17;;;;;;;18.77;10.60;;;5.90;99.90;;;;;;5015601;28;20042;-82
2023/04/18 03:37:43;;;;;;;21.07;10.53;;;5.90;99.90;;;;;;4996586;28;20042;-81
2023/04/18 03:40:09;;;;;;;20.07;10.83;;;6.60;99.90;;;;;;5012363;28;20045;-81
2023/04/18 03:42:35;;;;;;;18.87;10.43;;;5.90;99.90;;;;;;5013090;28;20049;-81
2023/04/18 03:45:01;;;;;;;18.77;9.73;;;6.00;99.90;;;;;;5011532;28;20042;-81
2023/04/18 03:47:27;;;;;;;18.70;9.57;;;6.00;99.90;;;;;;5014561;28;20056;-81
2023/04/18 03:49:53;;;;;;;17.90;9.80;;;6.00;99.90;;;;;;5014242;28;20049;-81
2023/04/18 03:52:19;;;;;;;19.10;10.63;;;6.00;99.90;;;;;;5013917;28;20176;-81
2023/04/18 03:54:44;;;;;;;18.37;10.40;;;6.00;99.90;;;;;;5036031;28;20120;-82
2023/04/18 03:57:10;;;;;;;18.13;9.43;;;6.00;99.90;;;;;;5036094;28;20509;-81
2023/04/18 03:59:36;;;;;;;17.20;9.57;;;6.00;99.90;;;;;;5017118;28;20041;-81
2023/04/18 04:02:01;;;;;;;17.20;9.50;;;6.00;99.90;;;;;;5024121;28;20058;-81
2023/04/18 04:04:27;;;;;;;17.83;10.00;;;6.30;99.90;;;;;;4997214;28;20038;-82
2023/04/18 04:06:53;;;;;;;17.67;9.60;;;6.30;99.90;;;;;;4996680;28;20410;-81
2023/04/18 04:09:18;;;;;;;18.23;9.50;;;6.80;99.90;;;;;;4997995;28;20108;-81
2023/04/18 04:11:45;;;;;;;19.00;10.40;;;6.00;99.90;;;;;;4998181;28;20041;-82
2023/04/18 04:14:10;;;;;;;20.50;10.17;;;6.50;99.90;;;;;;5015188;28;20046;-81
2023/04/18 04:16:36;;;;;;;18.07;9.53;;;6.00;99.90;;;;;;5016001;28;20041;-81
2023/04/18 04:19:03;;;;;;;19.80;10.45;;;6.00;99.90;;;;;;4997811;28;20133;-81
2023/04/18 04:21:30;;;;;;;18.38;10.15;;;6.00;99.90;;;;;;5014944;28;20550;-81
2023/04/18 04:23:56;;;;;;;19.00;11.07;;;6.00;99.90;;;;;;5017442;28;20432;-81
2023/04/18 04:26:22;;;;;;;19.10;10.87;;;6.00;99.90;;;;;;4998273;28;20107;-81
2023/04/18 04:28:48;;;;;;;20.93;11.40;;;6.00;99.90;;;;;;4997796;28;20042;-81
2023/04/18 04:31:15;;;;;;;21.27;11.77;;;6.00;99.90;;;;;;5016850;28;20054;-81
2023/04/18 04:33:41;;;;;;;21.55;11.40;;;6.00;99.90;;;;;;4998612;28;20046;-81
2023/04/18 04:36:07;;;;;;;20.20;11.27;;;6.70;99.90;;;;;;4996842;28;20046;-81
2023/04/18 04:38:36;;;;;;;21.97;12.07;;;6.00;99.90;;;;;;5015463;28;20489;-81
2023/04/18 04:41:03;;;;;;;21.00;11.27;;;6.00;99.90;;;;;;5015137;28;20160;-81
2023/04/18 04:43:29;;;;;;;23.07;12.30;;;6.00;99.90;;;;;;4997617;28;20045;-81
2023/04/18 04:45:56;;;;;;;21.80;12.20;;;6.00;99.90;;;;;;4997640;28;20038;-81
2023/04/18 04:48:23;;;;;;;23.37;12.80;;;6.00;99.90;;;;;;4997034;28;20129;-81
2023/04/18 04:50:57;;;;;;;22.20;11.87;;;6.00;99.90;;;;;;4997768;28;20107;-81
2023/04/18 04:53:24;;;;;;;22.73;12.05;;;6.00;99.90;;;;;;5014936;28;20034;-81
2023/04/18 04:55:50;;;;;;;20.87;11.67;;;6.00;99.90;;;;;;5014608;28;20050;-81
2023/04/18 04:58:16;;;;;;;22.15;12.55;;;6.00;99.90;;;;;;4997756;28;20045;-81
2023/04/18 05:00:42;;;;;;;22.70;12.97;;;6.00;99.90;;;;;;4997933;28;20468;-81
2023/04/18 05:03:08;;;;;;;22.57;12.23;;;6.00;99.90;;;;;;5014026;28;20049;-81
2023/04/18 05:05:34;;;;;;;21.60;12.27;;;6.00;99.90;;;;;;4996002;28;20089;-81
2023/04/18 05:08:03;;;;;;;23.77;11.87;;;6.00;99.90;;;;;;5015031;28;20065;-81
2023/04/18 05:10:29;;;;;;;22.17;11.87;;;5.90;99.90;;;;;;4996869;28;20468;-81
2023/04/18 05:12:55;;;;;;;23.83;12.27;;;5.90;99.90;;;;;;4996923;28;20056;-81
2023/04/18 05:15:23;;;;;;;22.40;11.93;;;5.90;99.90;;;;;;4997469;28;20037;-81
2023/04/18 05:17:49;;;;;;;22.87;12.60;;;5.90;99.90;;;;;;5014426;28;20100;-82
2023/04/18 05:20:14;;;;;;;21.23;11.93;;;5.90;99.90;;;;;;4996604;28;20046;-81
2023/04/18 05:22:40;;;;;;;21.03;12.07;;;5.90;99.90;;;;;;4997195;28;20097;-82
2023/04/18 05:25:06;;;;;;;22.33;12.43;;;6.00;99.90;;;;;;5013778;28;20042;-82
2023/04/18 05:27:32;;;;;;;21.93;12.77;;;5.90;99.90;;;;;;4996869;28;20096;-82
2023/04/18 05:29:57;;;;;;;25.53;12.83;;;5.90;99.90;;;;;;4996691;28;20046;-82
2023/04/18 05:32:23;;;;;;;21.23;12.03;;;5.90;99.90;;;;;;4996431;28;20433;-82
2023/04/18 05:34:49;;;;;;;24.07;13.10;;;5.90;99.90;;;;;;4996460;28;20038;-82
2023/04/18 05:37:15;;;;;;;21.93;12.20;;;5.90;99.90;;;;;;4995944;28;20053;-82
2023/04/18 05:39:41;;;;;;;23.58;12.48;;;6.00;99.90;;;;;;5013798;28;20038;-82
2023/04/18 05:42:07;;;;;;;22.77;12.03;;;6.00;99.90;;;;;;4996531;28;20050;-82
2023/04/18 05:44:32;;;;;;;23.52;12.48;;;6.00;99.90;;;;;;4996202;28;20079;-81
2023/04/18 05:46:58;;;;;;;21.40;12.15;;;6.00;99.90;;;;;;5013709;28;20057;-82
2023/04/18 05:49:23;;;;;;;22.87;12.67;;;6.00;99.90;;;;;;5019709;28;20030;-81
2023/04/18 05:51:49;;;;;;;22.63;12.10;;;6.00;99.90;;;;;;5033072;28;20087;-81
2023/04/18 05:54:15;;;;;;;22.90;13.00;;;6.10;99.90;;;;;;5017308;28;20033;-81
2023/04/18 05:56:41;;;;;;;21.40;12.77;;;6.10;99.90;;;;;;5017087;28;20053;-82
2023/04/18 05:59:07;;;;;;;24.02;12.85;;;7.10;99.90;;;;;;5032866;28;20045;-82
2023/04/18 06:01:33;;;;;;;24.70;12.60;;;6.20;99.90;;;;;;5034684;28;20049;-82
2023/04/18 06:03:58;;;;;;;23.23;12.87;;;6.20;99.90;;;;;;5014839;28;20528;-82
2023/04/18 06:06:24;;;;;;;24.20;13.00;;;6.20;99.90;;;;;;4995366;28;20061;-82
2023/04/18 06:08:50;;;;;;;22.73;12.27;;;6.30;99.90;;;;;;5014099;28;20050;-82
2023/04/18 06:11:18;;;;;;;22.47;12.83;;;6.40;99.90;;;;;;4995621;28;20057;-82
2023/04/18 06:13:44;;;;;;;24.10;12.30;;;7.90;99.90;;;;;;5012801;28;20052;-82
2023/04/18 06:16:10;;;;;;;23.17;12.80;;;6.50;99.90;;;;;;4995360;28;20131;-82
2023/04/18 06:18:36;;;;;;;21.43;12.47;;;6.60;99.90;;;;;;5113503;23;20053;-82
2023/04/18 06:21:02;;;;;;;20.67;11.30;;;6.70;99.90;;;;;;5012090;28;20096;-82
2023/04/18 06:23:28;;;;;;;22.77;12.15;;;6.70;99.90;;;;;;5013892;28;20041;-82
2023/04/18 06:25:53;;;;;;;22.23;12.90;;;6.80;99.90;;;;;;5013381;28;20046;-82
2023/04/18 06:32:42;;;;;;;22.17;12.38;;;6.90;99.90;;;;;;5033402;22;20409;-93
2023/04/18 06:36:20;;;;;;;22.92;12.60;;;7.80;99.90;;;;;;5005046;28;20034;-93
2023/04/18 06:46:27;;;;;;;22.10;12.05;;;7.00;99.90;;;;;;4939024;29;20058;-93
2023/04/18 09:59:40;;;;;;;14.98;9.65;;;11.50;99.90;;;;;;5627483;23;20112;-88
2023/04/18 10:02:23;;;;;;;15.10;9.45;;;11.60;99.90;;;;;;5015175;28;20116;-87
2023/04/18 10:04:50;;;;;;;15.52;9.88;;;11.10;99.90;;;;;;5016213;28;20088;-87
2023/04/18 10:20:27;;;;;;;17.83;11.27;;;13.20;99.90;;;;;;5298761;23;20107;-89
2023/04/18 10:56:55;;;;;;;15.55;9.60;;;13.90;99.90;;;;;;4994996;28;20069;-93
2023/04/18 11:06:36;;;;;;;17.30;11.10;;;13.90;99.90;;;;;;4972628;28;20041;-95
2023/04/18 11:09:15;;;;;;;17.08;11.82;;;13.80;99.90;;;;;;5009433;28;20050;-93
2023/04/18 11:14:13;;;;;;;16.60;10.75;;;13.60;99.90;;;;;;5045158;23;20053;-88
2023/04/18 11:16:43;;;;;;;16.70;10.77;;;14.10;99.90;;;;;;5012996;28;20045;-89
2023/04/18 11:19:34;;;;;;;16.92;9.98;;;14.60;99.90;;;;;;4995870;28;20403;-91
2023/04/18 11:22:08;;;;;;;15.25;9.77;;;14.90;99.90;;;;;;5004584;28;20053;-91
2023/04/18 11:25:00;;;;;;;15.70;9.80;;;15.30;99.90;;;;;;4989216;28;20049;-90
2023/04/18 11:27:50;;;;;;;15.07;10.05;;;15.10;99.90;;;;;;4978068;28;20058;-91
2023/04/18 11:34:18;;;;;;;16.75;9.50;;;16.00;99.90;;;;;;4933021;29;20050;-92
2023/04/18 11:36:51;;;;;;;14.90;9.02;;;15.90;99.90;;;;;;4967663;28;20456;-90
2023/04/18 11:39:18;;;;;;;14.00;9.60;;;15.80;99.90;;;;;;5013458;28;20045;-87
2023/04/18 11:41:49;;;;;;;14.52;9.85;;;16.90;99.90;;;;;;4995981;28;20088;-89
2023/04/18 11:47:45;;;;;;;16.63;9.60;;;15.70;99.90;;;;;;4955979;28;20517;-88
2023/04/18 11:50:16;;;;;;;13.80;8.57;;;16.30;99.90;;;;;;4997274;28;20762;-90
2023/04/18 12:16:20;;;;;;;14.07;10.15;;;16.50;99.90;;;;;;5008872;28;20161;-87
2023/04/18 12:25:26;;;;;;;14.65;9.75;;;16.50;99.90;;;;;;4920420;29;20177;-85
2023/04/18 12:28:27;;;;;;;15.02;9.82;;;16.50;99.90;;;;;;4919669;29;20071;-82
2023/04/18 12:30:59;;;;;;;16.15;9.88;;;15.90;99.90;;;;;;4921483;29;20119;-87
2023/04/18 12:34:05;;;;;;;17.70;9.50;;;17.50;99.90;;;;;;4941241;29;20051;-88
2023/04/18 12:36:32;;;;;;;14.35;9.85;;;15.70;99.90;;;;;;4977128;23;20074;-86
2023/04/18 12:39:50;;;;;;;14.98;9.38;;;16.20;99.90;;;;;;5078245;23;20050;-86
2023/04/18 12:42:16;;;;;;;31.25;11.88;;;15.80;99.90;;;;;;5000081;28;20046;-84
2023/04/18 12:44:42;;;;;;;15.48;9.73;;;17.20;99.90;;;;;;5015544;28;20065;-85
2023/04/18 12:47:13;;;;;;;15.20;9.23;;;17.10;99.90;;;;;;5020712;23;20054;-86
2023/04/18 12:50:07;;;;;;;14.65;8.98;;;16.00;99.90;;;;;;5015164;28;20045;-86
2023/04/18 12:52:33;;;;;;;15.85;9.27;;;16.10;99.90;;;;;;4998081;28;20054;-86
2023/04/18 12:55:17;;;;;;;14.73;9.05;;;16.40;99.90;;;;;;5014799;28;20037;-86
2023/04/18 12:57:43;;;;;;;;;;;17.10;99.90;;;;;;4988500;28;20107;-86
2023/04/18 13:04:01;;;;;;;13.30;7.88;;;17.20;99.90;;;;;;5015488;28;20080;-86
2023/04/18 13:06:27;;;;;;;13.88;7.20;;;17.30;99.90;;;;;;5015165;28;20050;-85
2023/04/18 13:08:58;;;;;;;12.48;7.32;;;17.30;99.90;;;;;;5014877;28;20063;-86
2023/04/18 13:11:32;;;;;;;11.05;6.80;;;17.40;99.90;;;;;;4997735;28;20510;-86
2023/04/18 13:14:07;;;;;;;12.15;6.75;;;17.30;98.80;;;;;;4997231;28;20042;-86
2023/04/18 13:16:42;;;;;;;11.30;6.50;;;17.50;98.60;;;;;;5014632;28;20041;-86
2023/04/18 13:19:17;;;;;;;11.50;6.50;;;16.60;99.30;;;;;;4997881;28;20091;-85
2023/04/18 13:21:55;;;;;;;9.57;5.90;;;16.60;99.80;;;;;;4996589;28;20045;-85
2023/04/18 13:24:23;;;;;;;10.30;5.28;;;16.80;99.30;;;;;;5054092;23;20129;-88
2023/04/18 13:26:55;;;;;;;10.05;5.40;;;16.90;99.80;;;;;;4998117;28;20082;-90
2023/04/18 13:29:23;;;;;;;9.93;5.03;;;17.20;99.30;;;;;;4997396;28;20132;-88
2023/04/18 13:31:52;;;;;;;10.02;5.15;;;17.40;99.30;;;;;;5014787;28;20472;-90
2023/04/18 13:34:23;;;;;;;9.52;5.20;;;17.30;99.20;;;;;;4995610;23;20422;-88
2023/04/18 13:37:39;;;;;;;9.55;5.35;;;17.10;98.80;;;;;;4976594;28;20189;-89
2023/04/18 13:40:58;;;;;;;11.05;5.25;;;16.90;99.00;;;;;;4975624;28;20047;-88
2023/04/18 13:43:25;;;;;;;10.27;4.93;;;17.20;98.50;;;;;;5014835;23;20045;-89
2023/04/18 13:45:52;;;;;;;9.38;4.78;;;17.30;99.30;;;;;;5036521;28;20048;-89
2023/04/18 13:48:18;;;;;;;10.25;4.68;;;17.50;99.20;;;;;;5036155;28;20087;-88
2023/04/18 13:50:50;;;;;;;9.95;5.35;;;18.10;99.40;;;;;;5036342;28;20045;-89
2023/04/18 13:57:10;;;;;;;9.02;4.47;;;17.60;98.00;;;;;;4994215;28;20418;-89
2023/04/18 14:00:08;;;;;;;9.25;4.80;;;17.70;97.80;;;;;;4994403;28;20050;-88
2023/04/18 14:02:35;;;;;;;9.38;4.55;;;17.50;97.50;;;;;;4999155;28;20097;-88
2023/04/18 14:05:18;;;;;;;9.45;4.43;;;17.40;97.90;;;;;;4996164;28;20082;-88
2023/04/18 14:08:17;;;;;;;9.73;4.63;;;17.50;97.80;;;;;;4984729;28;20045;-89
2023/04/18 14:11:52;;;;;;;8.65;4.30;;;17.70;98.10;;;;;;5041004;22;20745;-89
2023/04/18 14:14:18;;;;;;;9.15;4.47;;;17.70;97.70;;;;;;4996561;28;20046;-89
2023/04/18 14:16:50;;;;;;;10.63;4.90;;;18.10;98.80;;;;;;4996869;28;20038;-89
2023/04/18 14:29:24;;;;;;;10.32;5.97;;;19.00;97.90;;;;;;5003231;28;20545;-88
2023/04/18 14:32:24;;;;;;;10.82;6.53;;;17.90;98.20;;;;;;4995890;28;20050;-88
2023/04/18 14:44:20;;;;;;;10.07;6.65;;;17.00;98.80;;;;;;4991683;28;20590;-90
2023/04/18 14:46:54;;;;;;;11.10;6.68;;;16.70;98.00;;;;;;4975216;28;20042;-89
2023/04/18 14:53:20;;;;;;;11.68;7.05;;;17.50;98.10;;;;;;4910248;28;20194;-87
2023/04/18 14:55:55;;;;;;;11.55;7.15;;;17.40;98.40;;;;;;5268863;23;20450;-88
2023/04/18 15:02:29;;;;;;;11.55;7.68;;;17.20;98.40;;;;;;4955005;28;20115;-89
2023/04/18 15:28:39;;;;;;;13.98;8.27;;;16.10;99.20;;;;;;4985435;23;20037;-86
2023/04/18 15:31:08;;;;;;;14.60;8.93;;;15.60;99.70;;;;;;4991747;28;20046;-87
2023/04/18 15:33:52;;;;;;;13.27;8.63;;;15.50;99.90;;;;;;4989492;28;20050;-84
2023/04/18 15:36:17;;;;;;;18.50;9.07;;;15.20;99.90;;;;;;4979520;28;20383;-88
2023/04/18 15:39:28;;;;;;;13.25;8.70;;;15.80;99.90;;;;;;4985942;28;20041;-89
2023/04/18 15:41:53;;;;;;;16.85;9.18;;;15.60;99.80;;;;;;4977196;28;20053;-90
2023/04/18 15:44:20;;;;;;;12.27;8.85;;;15.70;99.90;;;;;;4992865;28;20046;-89
2023/04/18 15:49:18;;;;;;;13.25;9.05;;;15.40;99.90;;;;;;5058472;23;20124;-88
2023/04/18 15:51:44;;;;;;;14.95;9.50;;;15.40;99.90;;;;;;5018416;28;20068;-88
2023/04/18 15:54:12;;;;;;;13.65;9.30;;;16.40;99.90;;;;;;5019066;28;20497;-88
2023/04/18 15:56:50;;;;;;;13.98;9.93;;;15.40;99.90;;;;;;5021905;28;20113;-90
2023/04/18 15:59:37;;;;;;;14.02;9.23;;;15.10;99.90;;;;;;5016744;28;20099;-87
2023/04/18 16:02:21;;;;;;;13.70;9.27;;;14.60;99.90;;;;;;4989557;28;20049;-87
2023/04/18 16:05:25;;;;;;;15.07;9.88;;;14.40;99.90;;;;;;5034973;28;20576;-86
2023/04/18 16:10:21;;;;;;;14.00;9.48;;;14.30;99.90;;;;;;5013004;28;20034;-87
2023/04/18 16:19:16;;;;;;;13.48;8.65;;;13.60;99.90;;;;;;5010880;23;20529;-86
2023/04/18 16:21:42;;;;;;;13.82;9.43;;;15.00;99.90;;;;;;4977804;28;20147;-87
2023/04/18 16:24:15;;;;;;;13.85;8.70;;;14.70;99.90;;;;;;4997501;28;20047;-86
2023/04/18 16:26:45;;;;;;;14.48;8.60;;;14.80;99.90;;;;;;4996325;28;20039;-87
2023/04/18 16:29:23;;;;;;;15.35;9.07;;;13.80;99.90;;;;;;4978732;28;20506;-87
2023/04/18 16:31:50;;;;;;;13.45;9.05;;;13.70;99.90;;;;;;4966596;28;20113;-86
2023/04/18 16:34:27;;;;;;;13.57;7.95;;;14.80;99.90;;;;;;4995557;28;20494;-87
2023/04/18 16:36:59;;;;;;;15.40;8.60;;;13.10;99.90;;;;;;4996050;28;20054;-88
2023/04/18 16:39:31;;;;;;;11.48;7.90;;;14.10;99.90;;;;;;4994822;28;20586;-88
2023/04/18 16:42:22;;;;;;;13.13;8.18;;;13.50;99.90;;;;;;4978386;28;20050;-89
2023/04/18 16:44:52;;;;;;;13.52;7.60;;;14.20;99.90;;;;;;4995823;28;20121;-87
2023/04/18 16:48:17;;;;;;;13.82;7.90;;;14.10;99.90;;;;;;4980589;28;20151;-90
2023/04/18 16:50:57;;;;;;;;;;;13.40;99.90;;;;;;4917860;29;20091;-88
2023/04/18 16:53:23;;;;;;;11.63;7.60;;;13.40;99.90;;;;;;4900843;29;20011;-88
2023/04/18 16:55:55;;;;;;;13.43;7.45;;;13.40;99.90;;;;;;4896873;29;20076;-89
2023/04/18 16:59:01;;;;;;;13.25;6.82;;;13.30;99.90;;;;;;4916817;28;20044;-89
2023/04/18 17:01:35;;;;;;;11.73;7.47;;;13.30;99.90;;;;;;5002605;28;20065;-94
2023/04/18 17:04:49;;;;;;;13.70;7.20;;;13.30;99.90;;;;;;4995578;28;20096;-86
2023/04/18 17:07:15;;;;;;;12.02;6.55;;;13.10;99.90;;;;;;4937335;28;20059;-82
2023/04/18 17:09:49;;;;;;;10.60;6.43;;;13.20;99.90;;;;;;4973986;28;20596;-82
2023/04/18 17:12:15;;;;;;;10.38;6.13;;;14.30;99.90;;;;;;4991556;28;20049;-82
2023/04/18 17:14:41;;;;;;;10.88;6.18;;;14.50;99.90;;;;;;4975863;28;20046;-82
2023/04/18 17:17:06;;;;;;;10.80;6.28;;;13.70;99.90;;;;;;4975144;28;20109;-82
2023/04/18 17:19:32;;;;;;;13.82;6.40;;;14.10;99.90;;;;;;4977771;28;20046;-82
2023/04/18 17:21:59;;;;;;;12.20;6.40;;;14.30;99.90;;;;;;4994221;28;20117;-82
2023/04/18 17:24:24;;;;;;;11.15;5.93;;;14.60;99.90;;;;;;4978159;28;20038;-83
2023/04/18 17:26:50;;;;;;;10.60;5.97;;;14.40;99.90;;;;;;4976613;28;20137;-83
2023/04/18 17:29:17;;;;;;;11.43;5.93;;;13.80;99.90;;;;;;4994409;28;20042;-83
2023/04/18 17:31:42;;;;;;;11.30;6.05;;;13.40;99.90;;;;;;4994694;28;20533;-82
2023/04/18 17:34:08;;;;;;;11.15;5.95;;;13.70;99.90;;;;;;4994867;28;20046;-83
2023/04/18 17:36:34;;;;;;;11.10;6.30;;;14.10;99.90;;;;;;4993989;28;20043;-83
2023/04/18 17:39:06;;;;;;;10.50;6.03;;;14.10;99.90;;;;;;4977602;28;20501;-82
2023/04/18 17:41:39;;;;;;;10.02;5.88;;;13.80;99.90;;;;;;4995136;28;20049;-82
2023/04/18 17:44:09;;;;;;;10.65;5.95;;;13.70;99.90;;;;;;4976615;28;20491;-82
2023/04/18 17:46:35;;;;;;;11.52;6.15;;;13.90;99.90;;;;;;4997366;28;20055;-82
2023/04/18 17:49:01;;;;;;;12.00;6.22;;;13.90;99.90;;;;;;4979361;28;20043;-82
2023/04/18 17:51:26;;;;;;;10.82;6.00;;;13.50;99.90;;;;;;4995241;28;20124;-82
2023/04/18 17:53:52;;;;;;;11.18;6.40;;;13.10;99.90;;;;;;4997986;28;20038;-82
2023/04/18 17:56:17;;;;;;;10.75;6.35;;;13.30;99.90;;;;;;4995932;28;20038;-82
2023/04/18 17:58:43;;;;;;;12.00;6.38;;;12.50;99.90;;;;;;4976953;28;20046;-82
2023/04/18 18:01:19;;;;;;;10.95;5.85;;;12.30;99.90;;;;;;4976537;28;20130;-82
2023/04/18 18:03:46;;;;;;;12.35;6.68;;;12.10;99.90;;;;;;4976212;28;20050;-82
2023/04/18 18:06:13;;;;;;;11.40;6.53;;;12.00;99.90;;;;;;4976455;28;20070;-82
2023/04/18 18:08:41;;;;;;;11.43;6.28;;;11.90;99.90;;;;;;4994455;28;20065;-82
2023/04/18 18:11:07;;;;;;;12.85;6.45;;;11.80;99.90;;;;;;4992668;28;20039;-82
2023/04/18 18:13:32;;;;;;;12.95;6.30;;;11.60;99.90;;;;;;4977258;28;20426;-82
2023/04/18 18:15:58;;;;;;;11.52;7.00;;;11.90;99.90;;;;;;4976301;28;20092;-82
2023/04/18 18:18:24;;;;;;;12.63;6.75;;;11.40;99.90;;;;;;4993184;28;20042;-82
2023/04/18 18:20:50;;;;;;;11.15;6.68;;;11.30;99.90;;;;;;4994259;28;20501;-82
2023/04/18 18:23:15;;;;;;;12.25;6.88;;;11.30;99.90;;;;;;4976682;28;20042;-82
2023/04/18 18:25:44;;;;;;;12.23;6.53;;;11.20;99.90;;;;;;4976030;28;20487;-82
2023/04/18 18:28:09;;;;;;;13.93;7.22;;;12.00;99.90;;;;;;4978371;28;20046;-82
2023/04/18 18:30:36;;;;;;;13.32;7.45;;;11.00;99.90;;;;;;4979442;28;20077;-82
2023/04/18 18:33:02;;;;;;;13.35;7.72;;;10.90;99.90;;;;;;4975620;28;20449;-82
2023/04/18 18:35:28;;;;;;;12.05;7.18;;;10.90;99.90;;;;;;4993867;28;20050;-82
2023/04/18 18:37:57;;;;;;;13.60;7.15;;;10.90;99.90;;;;;;4993895;28;20054;-82
2023/04/18 18:40:23;;;;;;;13.48;7.03;;;10.70;99.90;;;;;;4975564;28;20074;-82
2023/04/18 18:42:50;;;;;;;13.10;7.05;;;10.70;99.90;;;;;;4976696;28;20080;-82
2023/04/18 18:45:16;;;;;;;13.88;7.10;;;10.60;99.90;;;;;;4992837;28;20046;-81
2023/04/18 18:47:42;;;;;;;11.68;6.78;;;10.60;99.90;;;;;;4975179;28;20141;-82
2023/04/18 18:50:08;;;;;;;12.52;6.88;;;10.50;99.90;;;;;;4976322;28;20133;-82
2023/04/18 18:52:34;;;;;;;12.27;6.68;;;10.40;99.90;;;;;;4975976;28;20038;-82
2023/04/18 18:55:00;;;;;;;11.65;6.40;;;10.40;99.90;;;;;;4994235;28;20054;-81
2023/04/18 18:57:26;;;;;;;11.65;6.45;;;10.30;99.90;;;;;;4976895;28;20097;-82
2023/04/18 18:59:51;;;;;;;11.38;6.43;;;10.40;99.90;;;;;;4993455;28;20430;-80